AUE weather

Abu Rudeis Airport
Abu Rudeis, South Sinai Governorate, Egypt

Public forecast

Using degrees Celsius for public forecast. Weather courtesy of forecast.io.

METAR (pilot weather report)

Report is more than 6 hours old.

Closest report is St Catherine International Airport, 47.0 nm (87.1 km) ESE. Retrieved 2019/05/20 05:00 UTC (1 day ago):

HESC 200500Z 00000KT CAVOK 18/M00 Q1020 NOSIG

TAF (pilot weather forecast)

Closest forecast is St Catherine International Airport, 47.0 nm (87.1 km) ESE. Retrieved 2019/05/21 12:45 UTC (2 hours ago):

TAF HESC 211100Z 2112/2218 04012KT CAVOK